Latest Coastal Weather Observations for McCluer Island

IDD60701

Issued at 9:31 pm CST Sunday 30 August 2015 (issued every 10 minutes, with the page automatically refreshed every 10 minutes)

About coastal observations | Map of coastal stations | Coastal observations for NT | Marine services | Other Formats
Station Details ID: 014274 Name: MCCLUER ISLAND Lat: -11.05 Lon: 132.98 Height: 1.4 m
Data from the previous 72 hours. | See also: Recent months at McCluer Island
Date/Time
CST
Temp

°C
Wind Pressure Rain
since 9am
mm
Weather Cloud Vis
km
Sea
Height
m
Swell
Dir
 
Speed
knots
Gust
knots
hPa Trend Height
m
Period
s
Dir
30/09:30pm 26.1 NE 14 16 1014.1 - 0.0 - - - - - - -
30/09:00pm 26.2 NE 16 18 1013.8 - 0.0 - - - - - - -
30/08:30pm 25.9 NE 15 18 1013.6 - 0.0 - - - - - - -
30/08:00pm 26.0 NE 16 18 1013.3 - 0.0 - - - - - - -
30/07:30pm 25.9 NE 15 17 1013.0 - 0.0 - - - - - - -
30/07:00pm 25.9 NE 14 16 1012.9 - 0.0 - - - - - - -
30/06:30pm 25.8 ENE 14 16 1012.6 - 0.0 - - - - - - -
30/06:00pm 25.9 NE 13 15 1012.6 - 0.0 - - - - - - -
30/05:30pm 26.1 ENE 12 14 1012.8 - 0.0 - - - - - - -
30/05:00pm 26.2 E 12 15 1012.9 - 0.0 - - - - - - -
30/04:30pm 26.6 E 11 13 1012.9 - 0.0 - - - - - - -
30/04:00pm 26.8 E 11 13 1012.9 - 0.0 - - - - - - -
30/03:30pm 26.9 E 11 13 1012.9 - 0.0 - - - - - - -
30/03:00pm 26.9 E 12 13 1013.2 - 0.0 - - - - - - -
30/02:30pm 27.5 E 13 15 1013.4 - 0.0 - - - - - - -
30/02:00pm 27.3 ESE 13 15 1013.8 - 0.0 - - - - - - -
30/01:30pm 27.2 ESE 13 16 1014.2 - 0.0 - - - - - - -
30/01:00pm 27.1 ESE 13 16 1014.6 - 0.0 - - - - - - -
30/12:30pm 27.3 ESE 13 16 1015.0 - 0.0 - - - - - - -
30/12:00pm 27.1 E 13 16 1015.3 - 0.0 - - - - - - -
30/11:30am 27.5 ESE 12 17 1015.7 - 0.0 - - - - - - -
30/11:00am 28.5 SE 11 15 1016.1 - 0.0 - - - - - - -
30/10:30am 27.3 SE 11 15 1016.4 - 0.0 - - - - - - -
30/10:00am 27.5 SE 10 15 1016.4 - 0.0 - - - - - - -
30/09:30am 26.4 ESE 13 15 1016.1 - 0.0 - - - - - - -
30/09:00am 26.2 ESE 13 16 1015.9 - 0.0 - - - - - - -
30/08:30am 26.0 ESE 13 15 1015.6 - 0.0 - - - - - - -
30/08:00am 26.0 ESE 14 17 1015.3 - 0.0 - - - - - - -
30/07:30am 25.2 ESE 14 18 1015.0 - 0.0 - - - - - - -
30/07:00am 24.7 ESE 13 17 1014.7 - 0.0 - - - - - - -
30/06:30am 25.1 ESE 16 18 1014.3 - 0.0 - - - - - - -
30/06:00am 25.2 E 15 19 1014.2 - 0.0 - - - - - - -
30/05:30am 25.4 E 16 19 1014.0 - 0.0 - - - - - - -
30/05:00am 25.4 E 17 19 1013.8 - 0.0 - - - - - - -
30/04:30am 25.5 E 16 18 1013.6 - 0.0 - - - - - - -
30/04:00am 25.4 E 15 18 1013.5 - 0.0 - - - - - - -
30/03:30am 25.4 E 14 16 1013.6 - 0.0 - - - - - - -
30/03:00am 25.4 E 14 16 1013.7 - 0.0 - - - - - - -
30/02:30am 25.5 E 14 15 1013.9 - 0.0 - - - - - - -
30/02:00am 25.6 E 13 15 1014.1 - 0.0 - - - - - - -
30/01:30am 25.4 E 13 15 1014.2 - 0.0 - - - - - - -
30/01:00am 25.4 E 13 14 1014.4 - 0.0 - - - - - - -
30/12:30am 25.4 ENE 12 13 1014.6 - 0.0 - - - - - - -
30/12:00am 25.5 ENE 11 12 1014.6 - 0.0 - - - - - - -
 
Date/Time
CST
Temp

°C
Wind Pressure Rain
since 9am
mm
Weather Cloud Vis
km
Sea
Height
m
Swell
Dir
 
Speed
knots
Gust
knots
hPa Trend Height
m
Period
s
Dir
29/11:30pm 25.6 ENE 10 11 1014.6 - 0.0 - - - - - - -
29/11:00pm 25.5 ENE 10 11 1014.5 - 0.0 - - - - - - -
29/10:30pm 25.6 ENE 11 12 1014.4 - 0.0 - - - - - - -
29/10:00pm 25.7 NE 10 11 1014.5 - 0.0 - - - - - - -
29/09:30pm 25.7 ENE 10 11 1014.5 - 0.0 - - - - - - -
29/09:00pm 25.7 ENE 9 10 1014.3 - 0.0 - - - - - - -
29/08:30pm 25.8 ENE 9 11 1014.3 - 0.0 - - - - - - -
29/08:00pm 25.7 ENE 10 12 1014.0 - 0.0 - - - - - - -
29/07:30pm 25.9 ENE 11 13 1013.8 - 0.0 - - - - - - -
29/07:00pm 25.9 ENE 11 13 1013.5 - 0.0 - - - - - - -
29/06:30pm 25.9 E 12 14 1013.3 - 0.0 - - - - - - -
29/06:00pm 26.1 E 12 15 1013.3 - 0.0 - - - - - - -
29/05:30pm 26.3 E 14 16 1013.2 - 0.0 - - - - - - -
29/05:00pm 26.4 E 13 16 1012.9 - 0.0 - - - - - - -
29/04:30pm 26.5 E 13 15 1012.8 - 0.0 - - - - - - -
29/04:00pm 26.6 E 14 16 1012.8 - 0.0 - - - - - - -
29/03:30pm 26.8 E 15 16 1012.9 - 0.0 - - - - - - -
29/03:00pm 26.9 E 14 16 1013.3 - 0.0 - - - - - - -
29/02:30pm 27.1 E 15 18 1013.8 - 0.0 - - - - - - -
29/02:00pm 27.0 E 16 19 1014.3 - 0.0 - - - - - - -
29/01:30pm 27.1 E 16 18 1014.8 - 0.0 - - - - - - -
29/01:00pm 27.1 E 16 19 1015.1 - 0.0 - - - - - - -
29/12:30pm 27.5 E 16 19 1015.5 - 0.0 - - - - - - -
29/12:00pm 27.4 ESE 16 18 1015.9 - 0.0 - - - - - - -
29/11:30am 27.2 E 16 18 1016.4 - 0.0 - - - - - - -
29/11:00am 26.9 E 15 17 1016.7 - 0.0 - - - - - - -
29/10:30am 26.9 E 15 17 1016.7 - 0.0 - - - - - - -
29/10:00am 26.3 E 18 20 1016.8 - 0.0 - - - - - - -
29/09:30am 26.4 E 16 18 1016.8 - 0.0 - - - - - - -
29/09:00am 26.0 E 16 19 1016.5 - 0.0 - - - - - - -
29/08:30am 25.8 E 16 18 1016.1 - 0.0 - - - - - - -
29/08:00am 25.7 E 16 18 1015.9 - 0.0 - - - - - - -
29/07:30am 25.5 E 17 20 1015.5 - 0.0 - - - - - - -
29/07:00am 25.1 E 17 20 1014.9 - 0.0 - - - - - - -
29/06:30am 25.1 E 17 19 1014.4 - 0.0 - - - - - - -
29/06:00am 25.2 E 16 19 1014.3 - 0.0 - - - - - - -
29/05:30am 25.1 E 18 20 1013.9 - 0.0 - - - - - - -
29/05:00am 25.2 E 17 21 1013.7 - 0.0 - - - - - - -
29/04:30am 25.3 E 17 20 1013.6 - 0.0 - - - - - - -
29/04:00am 25.3 E 17 19 1013.6 - 0.0 - - - - - - -
29/03:30am 25.3 E 15 18 1013.7 - 0.0 - - - - - - -
29/03:00am 25.4 E 17 20 1013.9 - 0.0 - - - - - - -
29/02:30am 25.3 E 16 18 1013.8 - 0.0 - - - - - - -
29/02:00am 25.3 E 16 18 1014.0 - 0.0 - - - - - - -
29/01:30am 25.4 E 14 17 1014.3 - 0.0 - - - - - - -
29/01:00am 25.3 E 14 16 1014.5 - 0.0 - - - - - - -
29/12:30am 25.5 E 14 15 1014.8 - 0.0 - - - - - - -
29/12:00am 25.5 E 13 15 1014.9 - 0.0 - - - - - - -
 
Date/Time
CST
Temp

°C
Wind Pressure Rain
since 9am
mm
Weather Cloud Vis
km
Sea
Height
m
Swell
Dir
 
Speed
knots
Gust
knots
hPa Trend Height
m
Period
s
Dir
28/11:30pm 25.3 E 12 15 1014.9 - 0.0 - - - - - - -
28/11:00pm 25.4 E 12 13 1015.0 - 0.0 - - - - - - -
28/10:30pm 25.5 E 11 13 1014.9 - 0.0 - - - - - - -
28/10:00pm 25.4 ENE 11 13 1014.6 - 0.0 - - - - - - -
28/09:30pm 25.6 ENE 11 13 1014.4 - 0.0 - - - - - - -
28/09:00pm 25.5 ENE 11 13 1014.1 - 0.0 - - - - - - -
28/08:30pm 25.7 ENE 13 14 1013.9 - 0.0 - - - - - - -
28/08:00pm 25.7 ENE 12 15 1013.6 - 0.0 - - - - - - -
28/07:30pm 25.6 ENE 12 14 1013.2 - 0.0 - - - - - - -
28/07:00pm 25.8 E 12 14 1012.9 - 0.0 - - - - - - -
28/06:30pm 25.9 E 13 16 1012.6 - 0.0 - - - - - - -
28/06:00pm 26.1 E 14 16 1012.2 - 0.0 - - - - - - -
28/05:30pm 26.4 ESE 14 16 1012.1 - 0.0 - - - - - - -
28/05:00pm 26.6 E 14 16 1012.1 - 0.0 - - - - - - -
28/04:30pm 26.6 E 13 16 1012.1 - 0.0 - - - - - - -
28/04:00pm 27.0 E 14 16 1012.2 - 0.0 - - - - - - -
28/03:30pm 26.8 ESE 14 16 1012.4 - 0.0 - - - - - - -
28/03:00pm 27.3 E 14 16 1012.7 - 0.0 - - - - - - -
28/02:30pm 27.2 E 14 16 1013.1 - 0.0 - - - - - - -
28/02:00pm 27.4 E 14 16 1013.5 - 0.0 - - - - - - -
28/01:30pm 27.2 E 15 16 1013.8 - 0.0 - - - - - - -
28/01:00pm 27.3 E 15 17 1014.4 - 0.0 - - - - - - -
28/12:30pm 27.1 E 16 18 1014.8 - 0.0 - - - - - - -
28/12:00pm 27.0 ESE 16 18 1015.2 - 0.0 - - - - - - -
28/11:30am 27.0 ESE 16 17 1015.5 - 0.0 - - - - - - -
28/11:00am 27.0 E 15 18 1015.7 - 0.0 - - - - - - -
28/10:30am 26.8 E 17 19 1016.0 - 0.0 - - - - - - -
28/10:00am 26.6 E 15 18 1016.1 - 0.0 - - - - - - -
28/09:30am 26.3 E 16 18 1016.0 - 0.0 - - - - - - -
28/09:00am 26.0 E 15 17 1015.8 - 0.0 - - - - - - -
28/08:30am 25.6 E 16 17 1015.5 - 0.0 - - - - - - -
28/08:00am 25.4 ESE 15 17 1015.3 - 0.0 - - - - - - -
28/07:30am 25.3 ESE 17 19 1014.9 - 0.0 - - - - - - -
28/07:00am 24.9 ESE 16 19 1014.6 - 0.0 - - - - - - -
28/06:30am 25.0 ESE 18 22 1014.2 - 0.0 - - - - - - -
28/06:00am 24.8 ESE 17 19 1013.9 - 0.0 - - - - - - -
28/05:30am 25.0 ESE 19 22 1013.7 - 0.0 - - - - - - -
28/05:00am 25.0 ESE 19 22 1013.6 - 0.0 - - - - - - -
28/04:30am 24.9 E 20 24 1013.5 - 0.0 - - - - - - -
28/04:00am 25.0 E 19 22 1013.5 - 0.0 - - - - - - -
28/03:30am 25.2 E 19 23 1013.6 - 0.0 - - - - - - -
28/03:00am 25.4 E 20 23 1013.7 - 0.0 - - - - - - -
28/02:30am 25.5 E 19 23 1013.7 - 0.0 - - - - - - -
28/02:00am 25.5 E 18 22 1013.9 - 0.0 - - - - - - -
28/01:30am 25.7 E 17 21 1014.3 - 0.0 - - - - - - -
28/01:00am 25.6 E 17 20 1014.5 - 0.0 - - - - - - -
28/12:30am 25.4 E 16 19 1014.7 - 0.0 - - - - - - -
28/12:00am 25.5 E 16 19 1014.7 - 0.0 - - - - - - -
 
Date/Time
CST
Temp

°C
Wind Pressure Rain
since 9am
mm
Weather Cloud Vis
km
Sea
Height
m
Swell
Dir
 
Speed
knots
Gust
knots
hPa Trend Height
m
Period
s
Dir
27/11:30pm 25.5 E 18 20 1014.8 - 0.0 - - - - - - -
27/11:00pm 25.5 ENE 16 18 1014.9 - 0.0 - - - - - - -
27/10:30pm 25.5 ENE 14 16 1014.9 - 0.0 - - - - - - -
27/10:00pm 25.5 ENE 14 16 1014.8 - 0.0 - - - - - - -

Other Formats:

Comma delimited format used in spreadsheet applications
http://www.bom.gov.au/fwo/IDD60701/IDD60701.94135.axf

JavaScript Object Notation format (JSON) in row-major order
http://www.bom.gov.au/fwo/IDD60701/IDD60701.94135.json